Terminal Aerodrome Forecast
Issued by NWS

Home | Current Version | Previous Version | Text Only | Print | Product List | Glossary On
Versions: 1 2 3 4 5 6 7 8 9 10 11 12 13 14 15 16 17 18 19 20 21 22 23 24 25 26 27
536
FTUS46 KMFR 300231 AAA
TAFOTH
TAF AMD
KOTH 300231Z 3003/3024 34006KT P6SM FEW015 FEW040 BKN150
     FM300600 VRB03KT 3SM BR OVC007
     FM301100 16003KT 2SM BR BKN003 BKN006 OVC012
     FM301800 23010G16KT P6SM SCT015 BKN025 OVC050
      AMD NOT SKED 3004/3014=

USA.gov is the U.S. government's official web portal to all federal, state and local government web resources and services.